sensor_id;sensor_type;location;lat;lon;timestamp;pressure;altitude;pressure_sealevel;temperature;humidity
85000;BME280;75320;51.608;7.952;2024-01-07T00:00:28;100899.22;;;1.41;92.63
85000;BME280;75320;51.608;7.952;2024-01-07T00:02:55;100903.31;;;1.33;93.70
85000;BME280;75320;51.608;7.952;2024-01-07T00:05:20;100902.88;;;1.39;93.63
85000;BME280;75320;51.608;7.952;2024-01-07T00:07:45;100906.84;;;1.32;93.67
85000;BME280;75320;51.608;7.952;2024-01-07T00:10:11;100910.28;;;1.32;93.73
85000;BME280;75320;51.608;7.952;2024-01-07T00:12:36;100912.16;;;1.30;94.22
85000;BME280;75320;51.608;7.952;2024-01-07T00:15:02;100918.38;;;1.28;94.01
85000;BME280;75320;51.608;7.952;2024-01-07T00:17:27;100919.56;;;1.24;93.96
85000;BME280;75320;51.608;7.952;2024-01-07T00:19:53;100920.38;;;1.24;94.49
85000;BME280;75320;51.608;7.952;2024-01-07T00:22:19;100924.75;;;1.24;93.70
85000;BME280;75320;51.608;7.952;2024-01-07T00:24:46;100920.00;;;1.18;94.00
85000;BME280;75320;51.608;7.952;2024-01-07T00:27:13;100927.34;;;1.24;93.55
85000;BME280;75320;51.608;7.952;2024-01-07T00:29:38;100918.00;;;1.21;93.39
85000;BME280;75320;51.608;7.952;2024-01-07T00:32:05;100927.03;;;1.28;93.50
85000;BME280;75320;51.608;7.952;2024-01-07T00:34:31;100933.66;;;1.32;93.68
85000;BME280;75320;51.608;7.952;2024-01-07T00:36:57;100924.63;;;1.25;94.14
85000;BME280;75320;51.608;7.952;2024-01-07T00:39:22;100937.06;;;1.33;93.96
85000;BME280;75320;51.608;7.952;2024-01-07T00:41:47;100932.09;;;1.30;93.31
85000;BME280;75320;51.608;7.952;2024-01-07T00:44:14;100935.53;;;1.30;93.34
85000;BME280;75320;51.608;7.952;2024-01-07T00:46:39;100938.28;;;1.40;92.01
85000;BME280;75320;51.608;7.952;2024-01-07T00:49:04;100945.84;;;1.43;92.62
85000;BME280;75320;51.608;7.952;2024-01-07T00:51:29;100946.13;;;1.27;92.35
85000;BME280;75320;51.608;7.952;2024-01-07T00:53:55;100940.41;;;1.35;91.77
85000;BME280;75320;51.608;7.952;2024-01-07T00:56:20;100945.59;;;1.35;92.16
85000;BME280;75320;51.608;7.952;2024-01-07T00:58:45;100946.03;;;1.29;92.36
85000;BME280;75320;51.608;7.952;2024-01-07T01:01:12;100944.75;;;1.34;92.22
85000;BME280;75320;51.608;7.952;2024-01-07T01:03:37;100957.84;;;1.33;92.14
85000;BME280;75320;51.608;7.952;2024-01-07T01:06:04;100960.47;;;1.20;92.30
85000;BME280;75320;51.608;7.952;2024-01-07T01:08:29;100962.03;;;1.23;92.28
85000;BME280;75320;51.608;7.952;2024-01-07T01:10:55;100969.09;;;1.21;92.32
85000;BME280;75320;51.608;7.952;2024-01-07T01:13:20;100968.88;;;1.24;92.34
85000;BME280;75320;51.608;7.952;2024-01-07T01:15:47;100972.41;;;1.23;92.75
85000;BME280;75320;51.608;7.952;2024-01-07T01:18:13;100971.09;;;1.17;92.57
85000;BME280;75320;51.608;7.952;2024-01-07T01:20:39;100974.53;;;1.18;91.96
85000;BME280;75320;51.608;7.952;2024-01-07T01:23:05;100970.38;;;1.15;92.60
85000;BME280;75320;51.608;7.952;2024-01-07T01:25:30;100988.88;;;1.11;92.46
85000;BME280;75320;51.608;7.952;2024-01-07T01:27:56;100977.19;;;1.16;92.34
85000;BME280;75320;51.608;7.952;2024-01-07T01:30:22;100988.63;;;1.26;91.99
85000;BME280;75320;51.608;7.952;2024-01-07T01:32:47;100992.47;;;1.21;91.40
85000;BME280;75320;51.608;7.952;2024-01-07T01:35:12;100987.00;;;1.13;91.13
85000;BME280;75320;51.608;7.952;2024-01-07T01:37:38;100998.28;;;1.12;91.45
85000;BME280;75320;51.608;7.952;2024-01-07T01:40:04;101007.56;;;1.16;92.10
85000;BME280;75320;51.608;7.952;2024-01-07T01:42:29;101008.03;;;1.21;91.89
85000;BME280;75320;51.608;7.952;2024-01-07T01:44:54;101012.31;;;1.22;91.61
85000;BME280;75320;51.608;7.952;2024-01-07T01:47:24;101014.78;;;1.23;90.93
85000;BME280;75320;51.608;7.952;2024-01-07T01:49:51;101014.41;;;1.04;92.35
85000;BME280;75320;51.608;7.952;2024-01-07T01:52:17;101004.25;;;0.89;92.34
85000;BME280;75320;51.608;7.952;2024-01-07T01:54:42;101016.91;;;0.93;92.38
85000;BME280;75320;51.608;7.952;2024-01-07T01:57:13;101016.50;;;0.87;93.25
85000;BME280;75320;51.608;7.952;2024-01-07T01:59:42;101018.50;;;0.83;93.01
85000;BME280;75320;51.608;7.952;2024-01-07T02:02:07;101017.66;;;0.83;93.42
85000;BME280;75320;51.608;7.952;2024-01-07T02:04:33;101020.84;;;0.86;93.17
85000;BME280;75320;51.608;7.952;2024-01-07T02:06:59;101026.88;;;0.87;92.84
85000;BME280;75320;51.608;7.952;2024-01-07T02:09:24;101026.16;;;0.85;92.66
85000;BME280;75320;51.608;7.952;2024-01-07T02:12:03;101022.72;;;0.84;94.12
85000;BME280;75320;51.608;7.952;2024-01-07T02:14:29;101028.75;;;0.85;93.75
85000;BME280;75320;51.608;7.952;2024-01-07T02:16:55;101029.91;;;0.81;93.85
85000;BME280;75320;51.608;7.952;2024-01-07T02:19:21;101031.34;;;0.85;92.87
85000;BME280;75320;51.608;7.952;2024-01-07T02:21:47;101030.13;;;0.90;93.34
85000;BME280;75320;51.608;7.952;2024-01-07T02:24:16;101032.59;;;0.92;93.16
85000;BME280;75320;51.608;7.952;2024-01-07T02:26:41;101029.28;;;0.90;92.98
85000;BME280;75320;51.608;7.952;2024-01-07T02:29:07;101035.63;;;0.98;92.59
85000;BME280;75320;51.608;7.952;2024-01-07T02:31:33;101030.84;;;1.05;91.97
85000;BME280;75320;51.608;7.952;2024-01-07T02:34:00;101036.53;;;0.97;92.35
85000;BME280;75320;51.608;7.952;2024-01-07T02:36:25;101038.31;;;0.97;92.81
85000;BME280;75320;51.608;7.952;2024-01-07T02:38:52;101039.34;;;0.94;91.98
85000;BME280;75320;51.608;7.952;2024-01-07T02:41:17;101037.38;;;0.98;92.47
85000;BME280;75320;51.608;7.952;2024-01-07T02:43:43;101037.25;;;0.99;92.31
85000;BME280;75320;51.608;7.952;2024-01-07T02:46:08;101047.94;;;0.95;92.26
85000;BME280;75320;51.608;7.952;2024-01-07T02:48:34;101045.47;;;0.93;92.27
85000;BME280;75320;51.608;7.952;2024-01-07T02:51:00;101054.69;;;0.97;92.26
85000;BME280;75320;51.608;7.952;2024-01-07T02:53:28;101056.16;;;1.01;91.53
85000;BME280;75320;51.608;7.952;2024-01-07T02:55:54;101054.50;;;1.00;91.59
85000;BME280;75320;51.608;7.952;2024-01-07T02:58:20;101059.47;;;1.03;92.12
85000;BME280;75320;51.608;7.952;2024-01-07T03:00:46;101058.44;;;0.93;91.74
85000;BME280;75320;51.608;7.952;2024-01-07T03:03:13;101065.09;;;0.97;92.00
85000;BME280;75320;51.608;7.952;2024-01-07T03:05:38;101061.34;;;1.01;91.23
85000;BME280;75320;51.608;7.952;2024-01-07T03:08:03;101066.66;;;1.00;91.56
85000;BME280;75320;51.608;7.952;2024-01-07T03:10:29;101069.97;;;1.02;91.32
85000;BME280;75320;51.608;7.952;2024-01-07T03:12:54;101075.38;;;0.99;91.67
85000;BME280;75320;51.608;7.952;2024-01-07T03:15:19;101060.94;;;0.95;92.22
85000;BME280;75320;51.608;7.952;2024-01-07T03:17:45;101066.22;;;0.93;91.53
85000;BME280;75320;51.608;7.952;2024-01-07T03:20:10;101070.81;;;0.90;92.33
85000;BME280;75320;51.608;7.952;2024-01-07T03:22:36;101070.59;;;0.93;91.62
85000;BME280;75320;51.608;7.952;2024-01-07T03:25:03;101071.72;;;0.89;91.67
85000;BME280;75320;51.608;7.952;2024-01-07T03:27:28;101071.53;;;0.92;91.65
85000;BME280;75320;51.608;7.952;2024-01-07T03:29:55;101076.72;;;0.92;92.80
85000;BME280;75320;51.608;7.952;2024-01-07T03:32:22;101075.78;;;0.93;92.50
85000;BME280;75320;51.608;7.952;2024-01-07T03:34:47;101083.25;;;0.85;92.02
85000;BME280;75320;51.608;7.952;2024-01-07T03:37:13;101079.81;;;0.84;92.39
85000;BME280;75320;51.608;7.952;2024-01-07T03:39:39;101091.28;;;0.82;92.21
85000;BME280;75320;51.608;7.952;2024-01-07T03:42:04;101089.16;;;0.87;92.22
85000;BME280;75320;51.608;7.952;2024-01-07T03:44:36;101090.50;;;0.79;92.55
85000;BME280;75320;51.608;7.952;2024-01-07T03:47:01;101091.03;;;0.72;93.39
85000;BME280;75320;51.608;7.952;2024-01-07T03:49:28;101087.81;;;0.68;93.33
85000;BME280;75320;51.608;7.952;2024-01-07T03:51:53;101099.66;;;0.60;93.90
85000;BME280;75320;51.608;7.952;2024-01-07T03:54:18;101103.47;;;0.54;93.47
85000;BME280;75320;51.608;7.952;2024-01-07T03:56:44;101097.97;;;0.59;93.88
85000;BME280;75320;51.608;7.952;2024-01-07T03:59:10;101103.78;;;0.62;93.68
85000;BME280;75320;51.608;7.952;2024-01-07T04:01:36;101111.06;;;0.57;93.43
85000;BME280;75320;51.608;7.952;2024-01-07T04:04:01;101114.25;;;0.61;94.33
85000;BME280;75320;51.608;7.952;2024-01-07T04:06:26;101112.31;;;0.64;93.63
85000;BME280;75320;51.608;7.952;2024-01-07T04:08:53;101118.84;;;0.57;93.94
85000;BME280;75320;51.608;7.952;2024-01-07T04:11:18;101113.00;;;0.54;93.59
85000;BME280;75320;51.608;7.952;2024-01-07T04:13:45;101118.91;;;0.56;93.33
85000;BME280;75320;51.608;7.952;2024-01-07T04:16:17;101116.25;;;0.57;92.97
85000;BME280;75320;51.608;7.952;2024-01-07T04:18:43;101118.00;;;0.57;92.98
85000;BME280;75320;51.608;7.952;2024-01-07T04:21:09;101121.41;;;0.57;93.26
85000;BME280;75320;51.608;7.952;2024-01-07T04:23:35;101128.91;;;0.62;93.30
85000;BME280;75320;51.608;7.952;2024-01-07T04:26:00;101138.63;;;0.58;93.25
85000;BME280;75320;51.608;7.952;2024-01-07T04:28:27;101144.56;;;0.60;92.47
85000;BME280;75320;51.608;7.952;2024-01-07T04:30:52;101142.06;;;0.59;92.45
85000;BME280;75320;51.608;7.952;2024-01-07T04:33:18;101142.38;;;0.67;92.31
85000;BME280;75320;51.608;7.952;2024-01-07T04:35:43;101143.53;;;0.63;92.71
85000;BME280;75320;51.608;7.952;2024-01-07T04:38:10;101149.38;;;0.66;92.19
85000;BME280;75320;51.608;7.952;2024-01-07T04:40:35;101151.22;;;0.64;91.79
85000;BME280;75320;51.608;7.952;2024-01-07T04:43:02;101147.88;;;0.62;91.81
85000;BME280;75320;51.608;7.952;2024-01-07T04:45:27;101156.94;;;0.69;91.75
85000;BME280;75320;51.608;7.952;2024-01-07T04:47:52;101151.31;;;0.63;90.85
85000;BME280;75320;51.608;7.952;2024-01-07T04:50:18;101161.59;;;0.64;90.28
85000;BME280;75320;51.608;7.952;2024-01-07T04:52:45;101163.34;;;0.64;90.98
85000;BME280;75320;51.608;7.952;2024-01-07T04:55:12;101158.91;;;0.66;90.42
85000;BME280;75320;51.608;7.952;2024-01-07T04:57:37;101171.75;;;0.67;90.55
85000;BME280;75320;51.608;7.952;2024-01-07T05:00:03;101167.72;;;0.63;90.30
85000;BME280;75320;51.608;7.952;2024-01-07T05:02:29;101168.63;;;0.62;90.35
85000;BME280;75320;51.608;7.952;2024-01-07T05:04:54;101172.16;;;0.61;91.12
85000;BME280;75320;51.608;7.952;2024-01-07T05:07:20;101173.53;;;0.67;91.01
85000;BME280;75320;51.608;7.952;2024-01-07T05:09:45;101178.94;;;0.64;90.05
85000;BME280;75320;51.608;7.952;2024-01-07T05:12:12;101174.03;;;0.59;90.74
85000;BME280;75320;51.608;7.952;2024-01-07T05:14:38;101181.09;;;0.57;89.73
85000;BME280;75320;51.608;7.952;2024-01-07T05:17:03;101178.28;;;0.60;90.17
85000;BME280;75320;51.608;7.952;2024-01-07T05:19:29;101199.03;;;0.60;88.76
85000;BME280;75320;51.608;7.952;2024-01-07T05:21:54;101193.22;;;0.57;88.46
85000;BME280;75320;51.608;7.952;2024-01-07T05:24:20;101197.66;;;0.55;89.11
85000;BME280;75320;51.608;7.952;2024-01-07T05:26:45;101188.03;;;0.57;89.25
85000;BME280;75320;51.608;7.952;2024-01-07T05:29:11;101199.13;;;0.59;88.44
85000;BME280;75320;51.608;7.952;2024-01-07T05:31:40;101200.38;;;0.53;88.39
85000;BME280;75320;51.608;7.952;2024-01-07T05:34:06;101208.97;;;0.54;88.83
85000;BME280;75320;51.608;7.952;2024-01-07T05:36:32;101217.47;;;0.56;89.32
85000;BME280;75320;51.608;7.952;2024-01-07T05:38:57;101217.59;;;0.54;88.31
85000;BME280;75320;51.608;7.952;2024-01-07T05:41:22;101218.31;;;0.56;87.39
85000;BME280;75320;51.608;7.952;2024-01-07T05:43:48;101214.16;;;0.54;89.18
85000;BME280;75320;51.608;7.952;2024-01-07T05:46:13;101222.59;;;0.57;88.58
85000;BME280;75320;51.608;7.952;2024-01-07T05:48:43;101232.00;;;0.58;88.70
85000;BME280;75320;51.608;7.952;2024-01-07T05:51:09;101236.75;;;0.52;88.52
85000;BME280;75320;51.608;7.952;2024-01-07T05:53:34;101232.81;;;0.46;88.72
85000;BME280;75320;51.608;7.952;2024-01-07T05:56:00;101236.25;;;0.47;88.15
85000;BME280;75320;51.608;7.952;2024-01-07T05:58:25;101232.25;;;0.41;87.72
85000;BME280;75320;51.608;7.952;2024-01-07T06:00:50;101241.31;;;0.48;89.06
85000;BME280;75320;51.608;7.952;2024-01-07T06:03:16;101251.81;;;0.47;88.09
85000;BME280;75320;51.608;7.952;2024-01-07T06:05:41;101250.13;;;0.46;87.79
85000;BME280;75320;51.608;7.952;2024-01-07T06:08:08;101252.72;;;0.46;86.34
85000;BME280;75320;51.608;7.952;2024-01-07T06:10:35;101259.28;;;0.51;87.34
85000;BME280;75320;51.608;7.952;2024-01-07T06:13:00;101262.19;;;0.47;87.02
85000;BME280;75320;51.608;7.952;2024-01-07T06:15:26;101262.25;;;0.45;87.78
85000;BME280;75320;51.608;7.952;2024-01-07T06:17:52;101264.66;;;0.48;87.49
85000;BME280;75320;51.608;7.952;2024-01-07T06:20:17;101271.81;;;0.45;86.37
85000;BME280;75320;51.608;7.952;2024-01-07T06:22:44;101276.72;;;0.49;85.63
85000;BME280;75320;51.608;7.952;2024-01-07T06:25:09;101276.91;;;0.46;85.68
85000;BME280;75320;51.608;7.952;2024-01-07T06:27:35;101280.78;;;0.39;85.51
85000;BME280;75320;51.608;7.952;2024-01-07T06:30:00;101287.44;;;0.43;85.27
85000;BME280;75320;51.608;7.952;2024-01-07T06:32:26;101291.16;;;0.39;85.51
85000;BME280;75320;51.608;7.952;2024-01-07T06:34:51;101293.69;;;0.27;85.16
85000;BME280;75320;51.608;7.952;2024-01-07T06:37:17;101302.75;;;0.20;85.77
85000;BME280;75320;51.608;7.952;2024-01-07T06:39:42;101321.19;;;0.15;86.15
85000;BME280;75320;51.608;7.952;2024-01-07T06:42:10;101316.19;;;-0.02;86.84
85000;BME280;75320;51.608;7.952;2024-01-07T06:44:36;101316.56;;;-0.08;88.54
85000;BME280;75320;51.608;7.952;2024-01-07T06:47:01;101310.16;;;-0.17;89.11
85000;BME280;75320;51.608;7.952;2024-01-07T06:49:27;101333.50;;;-0.17;90.65
85000;BME280;75320;51.608;7.952;2024-01-07T06:51:52;101328.84;;;-0.40;92.16
85000;BME280;75320;51.608;7.952;2024-01-07T06:54:18;101335.00;;;-0.56;92.81
85000;BME280;75320;51.608;7.952;2024-01-07T06:56:43;101317.75;;;-0.71;93.47
85000;BME280;75320;51.608;7.952;2024-01-07T06:59:08;101326.84;;;-0.64;93.96
85000;BME280;75320;51.608;7.952;2024-01-07T07:01:35;101334.94;;;-0.70;93.51
85000;BME280;75320;51.608;7.952;2024-01-07T07:04:02;101344.28;;;-0.68;93.54
85000;BME280;75320;51.608;7.952;2024-01-07T07:06:27;101351.97;;;-0.66;92.95
85000;BME280;75320;51.608;7.952;2024-01-07T07:08:53;101365.69;;;-0.64;92.67
85000;BME280;75320;51.608;7.952;2024-01-07T07:11:19;101361.41;;;-0.65;92.84
85000;BME280;75320;51.608;7.952;2024-01-07T07:13:44;101365.84;;;-0.67;94.02
85000;BME280;75320;51.608;7.952;2024-01-07T07:16:10;101369.69;;;-0.74;93.99
85000;BME280;75320;51.608;7.952;2024-01-07T07:18:36;101383.88;;;-0.82;93.16
85000;BME280;75320;51.608;7.952;2024-01-07T07:21:02;101384.66;;;-0.80;92.86
85000;BME280;75320;51.608;7.952;2024-01-07T07:23:28;101388.38;;;-0.69;91.95
85000;BME280;75320;51.608;7.952;2024-01-07T07:25:56;101388.28;;;-0.68;91.46
85000;BME280;75320;51.608;7.952;2024-01-07T07:28:22;101396.81;;;-0.66;91.20
85000;BME280;75320;51.608;7.952;2024-01-07T07:30:48;101400.81;;;-0.60;90.85
85000;BME280;75320;51.608;7.952;2024-01-07T07:33:13;101400.63;;;-0.57;90.51
85000;BME280;75320;51.608;7.952;2024-01-07T07:35:40;101404.06;;;-0.57;90.45
85000;BME280;75320;51.608;7.952;2024-01-07T07:38:07;101418.59;;;-0.54;88.85
85000;BME280;75320;51.608;7.952;2024-01-07T07:40:32;101411.38;;;-0.49;88.44
85000;BME280;75320;51.608;7.952;2024-01-07T07:42:59;101417.50;;;-0.50;88.41
85000;BME280;75320;51.608;7.952;2024-01-07T07:45:24;101421.84;;;-0.51;88.13
85000;BME280;75320;51.608;7.952;2024-01-07T07:47:49;101433.13;;;-0.52;87.86
85000;BME280;75320;51.608;7.952;2024-01-07T07:50:14;101439.31;;;-0.54;87.49
85000;BME280;75320;51.608;7.952;2024-01-07T07:52:43;101433.94;;;-0.51;88.54
85000;BME280;75320;51.608;7.952;2024-01-07T07:55:11;101450.31;;;-0.51;86.70
85000;BME280;75320;51.608;7.952;2024-01-07T07:57:36;101435.22;;;-0.58;87.02
85000;BME280;75320;51.608;7.952;2024-01-07T08:00:05;101447.09;;;-0.54;87.15
85000;BME280;75320;51.608;7.952;2024-01-07T08:02:31;101463.38;;;-0.52;86.21
85000;BME280;75320;51.608;7.952;2024-01-07T08:04:57;101455.94;;;-0.58;86.21
85000;BME280;75320;51.608;7.952;2024-01-07T08:07:23;101446.50;;;-0.59;86.85
85000;BME280;75320;51.608;7.952;2024-01-07T08:09:49;101469.38;;;-0.52;87.16
85000;BME280;75320;51.608;7.952;2024-01-07T08:12:15;101463.53;;;-0.55;86.05
85000;BME280;75320;51.608;7.952;2024-01-07T08:14:43;101473.06;;;-0.56;86.05
85000;BME280;75320;51.608;7.952;2024-01-07T08:17:08;101484.97;;;-0.53;86.87
85000;BME280;75320;51.608;7.952;2024-01-07T08:19:33;101476.66;;;-0.58;84.94
85000;BME280;75320;51.608;7.952;2024-01-07T08:21:59;101497.44;;;-0.60;84.88
85000;BME280;75320;51.608;7.952;2024-01-07T08:24:24;101494.78;;;-0.58;85.61
85000;BME280;75320;51.608;7.952;2024-01-07T08:26:50;101495.88;;;-0.62;85.48
85000;BME280;75320;51.608;7.952;2024-01-07T08:29:15;101499.97;;;-0.58;85.74
85000;BME280;75320;51.608;7.952;2024-01-07T08:31:42;101505.03;;;-0.57;85.91
85000;BME280;75320;51.608;7.952;2024-01-07T08:34:07;101507.47;;;-0.54;85.57
85000;BME280;75320;51.608;7.952;2024-01-07T08:36:32;101500.53;;;-0.53;85.71
85000;BME280;75320;51.608;7.952;2024-01-07T08:38:58;101512.91;;;-0.58;84.69
85000;BME280;75320;51.608;7.952;2024-01-07T08:41:24;101528.34;;;-0.57;83.36
85000;BME280;75320;51.608;7.952;2024-01-07T08:43:51;101538.94;;;-0.61;83.60
85000;BME280;75320;51.608;7.952;2024-01-07T08:46:20;101538.09;;;-0.62;82.69
85000;BME280;75320;51.608;7.952;2024-01-07T08:48:45;101546.13;;;-0.66;82.85
85000;BME280;75320;51.608;7.952;2024-01-07T08:51:11;101545.13;;;-0.64;83.92
85000;BME280;75320;51.608;7.952;2024-01-07T08:53:37;101542.53;;;-0.64;82.62
85000;BME280;75320;51.608;7.952;2024-01-07T08:56:03;101541.72;;;-0.64;82.47
85000;BME280;75320;51.608;7.952;2024-01-07T08:58:28;101552.81;;;-0.62;82.48
85000;BME280;75320;51.608;7.952;2024-01-07T09:00:55;101548.47;;;-0.62;82.46
85000;BME280;75320;51.608;7.952;2024-01-07T09:03:20;101552.97;;;-0.65;81.93
85000;BME280;75320;51.608;7.952;2024-01-07T09:05:47;101561.41;;;-0.62;82.53
85000;BME280;75320;51.608;7.952;2024-01-07T09:08:12;101565.59;;;-0.59;81.99
85000;BME280;75320;51.608;7.952;2024-01-07T09:10:40;101564.59;;;-0.57;83.78
85000;BME280;75320;51.608;7.952;2024-01-07T09:13:05;101567.66;;;-0.66;81.65
85000;BME280;75320;51.608;7.952;2024-01-07T09:15:31;101572.69;;;-0.63;82.66
85000;BME280;75320;51.608;7.952;2024-01-07T09:17:56;101570.00;;;-0.61;82.14
85000;BME280;75320;51.608;7.952;2024-01-07T09:20:22;101589.97;;;-0.63;81.78
85000;BME280;75320;51.608;7.952;2024-01-07T09:22:48;101588.75;;;-0.56;82.96
85000;BME280;75320;51.608;7.952;2024-01-07T09:25:14;101584.47;;;-0.57;81.73
85000;BME280;75320;51.608;7.952;2024-01-07T09:27:39;101589.41;;;-0.53;83.16
85000;BME280;75320;51.608;7.952;2024-01-07T09:30:05;101602.44;;;-0.54;82.32
85000;BME280;75320;51.608;7.952;2024-01-07T09:32:31;101602.34;;;-0.53;81.88
85000;BME280;75320;51.608;7.952;2024-01-07T09:34:57;101599.16;;;-0.58;81.43
85000;BME280;75320;51.608;7.952;2024-01-07T09:37:23;101598.09;;;-0.54;81.06
85000;BME280;75320;51.608;7.952;2024-01-07T09:39:48;101603.09;;;-0.51;82.06
85000;BME280;75320;51.608;7.952;2024-01-07T09:42:16;101607.28;;;-0.48;81.52
85000;BME280;75320;51.608;7.952;2024-01-07T09:44:42;101596.84;;;-0.47;81.55
85000;BME280;75320;51.608;7.952;2024-01-07T09:47:12;101596.59;;;-0.42;80.14
85000;BME280;75320;51.608;7.952;2024-01-07T09:49:38;101606.09;;;-0.43;81.23
85000;BME280;75320;51.608;7.952;2024-01-07T09:52:04;101609.53;;;-0.42;79.07
85000;BME280;75320;51.608;7.952;2024-01-07T09:54:31;101621.59;;;-0.41;78.88
85000;BME280;75320;51.608;7.952;2024-01-07T09:57:02;101628.75;;;-0.46;80.27
85000;BME280;75320;51.608;7.952;2024-01-07T09:59:30;101617.50;;;-0.45;80.10
85000;BME280;75320;51.608;7.952;2024-01-07T10:01:56;101631.84;;;-0.40;78.38
85000;BME280;75320;51.608;7.952;2024-01-07T10:04:24;101639.44;;;-0.52;77.29
85000;BME280;75320;51.608;7.952;2024-01-07T10:06:49;101625.75;;;-0.54;78.56
85000;BME280;75320;51.608;7.952;2024-01-07T10:09:17;101630.16;;;-0.41;80.37
85000;BME280;75320;51.608;7.952;2024-01-07T10:11:45;101622.22;;;-0.53;79.29
85000;BME280;75320;51.608;7.952;2024-01-07T10:14:11;101621.78;;;-0.61;78.77
85000;BME280;75320;51.608;7.952;2024-01-07T10:16:38;101635.91;;;-0.51;78.86
85000;BME280;75320;51.608;7.952;2024-01-07T10:19:04;101639.44;;;-0.52;77.16
85000;BME280;75320;51.608;7.952;2024-01-07T10:21:29;101639.53;;;-0.54;77.05
85000;BME280;75320;51.608;7.952;2024-01-07T10:24:07;101644.72;;;-0.54;77.88
85000;BME280;75320;51.608;7.952;2024-01-07T10:26:36;101644.53;;;-0.51;78.55
85000;BME280;75320;51.608;7.952;2024-01-07T10:29:02;101644.72;;;-0.54;77.95
85000;BME280;75320;51.608;7.952;2024-01-07T10:31:27;101648.34;;;-0.58;77.51
85000;BME280;75320;51.608;7.952;2024-01-07T10:33:56;101646.69;;;-0.59;77.44
85000;BME280;75320;51.608;7.952;2024-01-07T10:36:22;101647.88;;;-0.49;78.49
85000;BME280;75320;51.608;7.952;2024-01-07T10:38:49;101639.44;;;-0.52;77.06
85000;BME280;75320;51.608;7.952;2024-01-07T10:41:18;101651.41;;;-0.50;76.74
85000;BME280;75320;51.608;7.952;2024-01-07T10:43:48;101650.88;;;-0.56;75.97
85000;BME280;75320;51.608;7.952;2024-01-07T10:46:14;101652.19;;;-0.65;75.83
85000;BME280;75320;51.608;7.952;2024-01-07T10:49:00;101649.53;;;-0.63;76.14
85000;BME280;75320;51.608;7.952;2024-01-07T10:51:28;101658.38;;;-0.67;75.92
85000;BME280;75320;51.608;7.952;2024-01-07T10:53:55;101670.69;;;-0.72;75.06
85000;BME280;75320;51.608;7.952;2024-01-07T10:56:23;101676.81;;;-0.73;75.35
85000;BME280;75320;51.608;7.952;2024-01-07T10:58:51;101660.81;;;-0.64;76.83
85000;BME280;75320;51.608;7.952;2024-01-07T11:01:17;101685.78;;;-0.81;73.99
85000;BME280;75320;51.608;7.952;2024-01-07T11:04:01;101681.59;;;-0.83;74.11
85000;BME280;75320;51.608;7.952;2024-01-07T11:06:52;101688.47;;;-0.82;75.41
85000;BME280;75320;51.608;7.952;2024-01-07T11:09:45;101673.50;;;-0.93;75.05
85000;BME280;75320;51.608;7.952;2024-01-07T11:12:23;101685.50;;;-0.92;74.17
85000;BME280;75320;51.608;7.952;2024-01-07T11:14:48;101674.31;;;-0.92;73.41
85000;BME280;75320;51.608;7.952;2024-01-07T11:17:41;101686.97;;;-0.86;73.19
85000;BME280;75320;51.608;7.952;2024-01-07T11:20:21;101691.06;;;-0.82;76.24
85000;BME280;75320;51.608;7.952;2024-01-07T11:22:47;101677.13;;;-0.80;76.66
85000;BME280;75320;51.608;7.952;2024-01-07T11:25:39;101679.16;;;-0.69;75.90
85000;BME280;75320;51.608;7.952;2024-01-07T11:28:05;101682.97;;;-0.76;75.18
85000;BME280;75320;51.608;7.952;2024-01-07T11:30:38;101680.47;;;-0.77;74.71
85000;BME280;75320;51.608;7.952;2024-01-07T11:33:04;101685.03;;;-0.83;74.83
85000;BME280;75320;51.608;7.952;2024-01-07T11:35:59;101690.66;;;-0.74;73.96
85000;BME280;75320;51.608;7.952;2024-01-07T11:38:26;101672.41;;;-0.71;74.37
85000;BME280;75320;51.608;7.952;2024-01-07T11:40:52;101677.09;;;-0.62;75.55
85000;BME280;75320;51.608;7.952;2024-01-07T11:43:17;101694.63;;;-0.67;73.75
85000;BME280;75320;51.608;7.952;2024-01-07T11:45:44;101688.28;;;-0.79;73.08
85000;BME280;75320;51.608;7.952;2024-01-07T11:48:09;101712.34;;;-0.77;72.86
85000;BME280;75320;51.608;7.952;2024-01-07T11:50:37;101690.53;;;-0.89;71.91
85000;BME280;75320;51.608;7.952;2024-01-07T11:53:03;101692.66;;;-0.80;72.69
85000;BME280;75320;51.608;7.952;2024-01-07T11:55:29;101696.28;;;-0.84;72.49
85000;BME280;75320;51.608;7.952;2024-01-07T11:57:57;101697.84;;;-0.80;72.93
85000;BME280;75320;51.608;7.952;2024-01-07T12:00:26;101702.31;;;-0.83;71.08
85000;BME280;75320;51.608;7.952;2024-01-07T12:02:52;101700.44;;;-0.80;70.38
85000;BME280;75320;51.608;7.952;2024-01-07T12:05:18;101711.78;;;-0.82;72.53
85000;BME280;75320;51.608;7.952;2024-01-07T12:07:44;101698.75;;;-0.81;71.41
85000;BME280;75320;51.608;7.952;2024-01-07T12:10:09;101687.53;;;-0.81;72.77
85000;BME280;75320;51.608;7.952;2024-01-07T12:12:49;101702.19;;;-0.80;72.37
85000;BME280;75320;51.608;7.952;2024-01-07T12:15:16;101694.19;;;-0.75;71.49
85000;BME280;75320;51.608;7.952;2024-01-07T12:17:42;101692.41;;;-0.75;71.40
85000;BME280;75320;51.608;7.952;2024-01-07T12:20:09;101707.41;;;-0.64;72.04
85000;BME280;75320;51.608;7.952;2024-01-07T12:22:38;101693.41;;;-0.60;71.59
85000;BME280;75320;51.608;7.952;2024-01-07T12:25:06;101703.13;;;-0.65;71.22
85000;BME280;75320;51.608;7.952;2024-01-07T12:27:33;101709.38;;;-0.69;72.22
85000;BME280;75320;51.608;7.952;2024-01-07T12:30:00;101730.84;;;-0.67;71.23
85000;BME280;75320;51.608;7.952;2024-01-07T12:32:30;101716.72;;;-0.77;69.61
85000;BME280;75320;51.608;7.952;2024-01-07T12:34:59;101708.88;;;-0.76;71.15
85000;BME280;75320;51.608;7.952;2024-01-07T12:37:28;101710.47;;;-0.73;71.92
85000;BME280;75320;51.608;7.952;2024-01-07T12:39:57;101714.34;;;-0.65;72.91
85000;BME280;75320;51.608;7.952;2024-01-07T12:42:22;101731.63;;;-0.65;70.10
85000;BME280;75320;51.608;7.952;2024-01-07T12:44:49;101723.47;;;-0.75;70.42
85000;BME280;75320;51.608;7.952;2024-01-07T12:47:14;101722.47;;;-0.72;70.68
85000;BME280;75320;51.608;7.952;2024-01-07T12:49:40;101718.75;;;-0.67;71.21
85000;BME280;75320;51.608;7.952;2024-01-07T12:52:05;101733.69;;;-0.72;69.89